sensor_id;sensor_type;location;lat;lon;timestamp;pressure;altitude;pressure_sealevel;temperature;humidity
49341;BME280;35209;51.050;13.678;2023-02-14T00:04:21;102032.13;;;4.84;100.00
49341;BME280;35209;51.050;13.678;2023-02-14T00:09:23;102023.16;;;4.71;100.00
49341;BME280;35209;51.050;13.678;2023-02-14T00:14:25;102017.91;;;4.70;100.00
49341;BME280;35209;51.050;13.678;2023-02-14T00:19:45;102023.88;;;4.66;100.00
49341;BME280;35209;51.050;13.678;2023-02-14T00:24:47;102019.00;;;4.79;100.00
49341;BME280;35209;51.050;13.678;2023-02-14T00:29:49;102014.78;;;4.86;100.00
49341;BME280;35209;51.050;13.678;2023-02-14T00:34:50;102020.09;;;4.89;100.00
49341;BME280;35209;51.050;13.678;2023-02-14T00:39:52;102022.34;;;4.74;100.00
49341;BME280;35209;51.050;13.678;2023-02-14T00:44:54;102027.91;;;4.53;100.00
49341;BME280;35209;51.050;13.678;2023-02-14T00:49:56;102024.19;;;4.43;100.00
49341;BME280;35209;51.050;13.678;2023-02-14T00:55:03;102014.59;;;4.42;100.00
49341;BME280;35209;51.050;13.678;2023-02-14T01:00:05;102011.75;;;4.32;100.00
49341;BME280;35209;51.050;13.678;2023-02-14T01:05:07;102007.50;;;4.35;100.00
49341;BME280;35209;51.050;13.678;2023-02-14T01:10:10;102003.19;;;4.37;100.00
49341;BME280;35209;51.050;13.678;2023-02-14T01:15:12;102001.56;;;4.41;100.00
49341;BME280;35209;51.050;13.678;2023-02-14T01:20:14;102005.88;;;4.75;100.00
49341;BME280;35209;51.050;13.678;2023-02-14T01:25:15;101989.50;;;4.82;100.00
49341;BME280;35209;51.050;13.678;2023-02-14T01:30:17;101997.44;;;4.87;100.00
49341;BME280;35209;51.050;13.678;2023-02-14T01:35:20;101988.94;;;4.95;100.00
49341;BME280;35209;51.050;13.678;2023-02-14T01:40:21;101984.28;;;4.80;100.00
49341;BME280;35209;51.050;13.678;2023-02-14T01:45:25;101980.41;;;4.63;100.00
49341;BME280;35209;51.050;13.678;2023-02-14T01:50:36;101976.78;;;4.57;100.00
49341;BME280;35209;51.050;13.678;2023-02-14T01:55:43;101978.00;;;4.36;100.00
49341;BME280;35209;51.050;13.678;2023-02-14T02:00:48;101994.59;;;4.40;100.00
49341;BME280;35209;51.050;13.678;2023-02-14T02:06:22;101985.97;;;4.42;100.00
49341;BME280;35209;51.050;13.678;2023-02-14T02:11:26;101982.13;;;4.63;100.00
49341;BME280;35209;51.050;13.678;2023-02-14T02:27:25;101968.31;;;4.65;100.00
49341;BME280;35209;51.050;13.678;2023-02-14T02:33:04;101967.16;;;4.54;100.00
49341;BME280;35209;51.050;13.678;2023-02-14T02:48:45;101968.88;;;4.52;100.00
49341;BME280;35209;51.050;13.678;2023-02-14T02:53:58;101970.41;;;4.44;100.00
49341;BME280;35209;51.050;13.678;2023-02-14T02:59:37;101961.06;;;4.53;100.00
49341;BME280;35209;51.050;13.678;2023-02-14T03:04:46;101959.47;;;4.24;100.00
49341;BME280;35209;51.050;13.678;2023-02-14T03:09:57;101953.06;;;4.10;100.00
49341;BME280;35209;51.050;13.678;2023-02-14T03:20:16;101962.69;;;4.14;96.80
49341;BME280;35209;51.050;13.678;2023-02-14T03:25:37;101959.44;;;4.21;96.86
49341;BME280;35209;51.050;13.678;2023-02-14T03:36:05;101959.91;;;4.41;94.44
49341;BME280;35209;51.050;13.678;2023-02-14T03:41:13;101957.28;;;4.41;93.40
49341;BME280;35209;51.050;13.678;2023-02-14T03:46:24;101952.31;;;4.51;91.58
49341;BME280;35209;51.050;13.678;2023-02-14T03:51:29;101950.28;;;4.38;92.22
49341;BME280;35209;51.050;13.678;2023-02-14T03:56:50;101951.84;;;4.30;93.03
49341;BME280;35209;51.050;13.678;2023-02-14T04:02:30;101953.28;;;4.19;93.98
49341;BME280;35209;51.050;13.678;2023-02-14T04:07:47;101964.69;;;4.24;93.31
49341;BME280;35209;51.050;13.678;2023-02-14T04:12:49;101963.28;;;4.38;91.53
49341;BME280;35209;51.050;13.678;2023-02-14T04:17:51;101960.75;;;4.40;91.74
49341;BME280;35209;51.050;13.678;2023-02-14T04:23:12;101962.25;;;4.66;89.53
49341;BME280;35209;51.050;13.678;2023-02-14T04:28:14;101954.03;;;4.49;89.99
49341;BME280;35209;51.050;13.678;2023-02-14T04:33:16;101945.34;;;4.49;90.45
49341;BME280;35209;51.050;13.678;2023-02-14T04:38:17;101941.50;;;4.69;89.09
49341;BME280;35209;51.050;13.678;2023-02-14T04:43:19;101939.81;;;4.73;88.09
49341;BME280;35209;51.050;13.678;2023-02-14T04:48:21;101938.06;;;4.72;87.18
49341;BME280;35209;51.050;13.678;2023-02-14T04:53:23;101936.41;;;4.75;87.63
49341;BME280;35209;51.050;13.678;2023-02-14T04:58:25;101927.28;;;4.57;88.88
49341;BME280;35209;51.050;13.678;2023-02-14T05:03:26;101926.66;;;4.67;88.66
49341;BME280;35209;51.050;13.678;2023-02-14T05:08:28;101930.34;;;4.78;87.89
49341;BME280;35209;51.050;13.678;2023-02-14T05:13:30;101924.91;;;4.67;88.34
49341;BME280;35209;51.050;13.678;2023-02-14T05:18:32;101924.94;;;4.69;89.34
49341;BME280;35209;51.050;13.678;2023-02-14T05:23:34;101927.84;;;4.43;90.84
49341;BME280;35209;51.050;13.678;2023-02-14T05:28:35;101919.84;;;4.36;92.04
49341;BME280;35209;51.050;13.678;2023-02-14T05:33:37;101927.22;;;4.53;91.76
49341;BME280;35209;51.050;13.678;2023-02-14T05:38:39;101916.81;;;4.55;90.74
49341;BME280;35209;51.050;13.678;2023-02-14T05:43:41;101927.13;;;4.50;90.89
49341;BME280;35209;51.050;13.678;2023-02-14T05:48:42;101914.06;;;4.47;91.88
49341;BME280;35209;51.050;13.678;2023-02-14T05:53:45;101914.97;;;4.49;92.09
49341;BME280;35209;51.050;13.678;2023-02-14T05:58:46;101921.91;;;4.49;92.19
49341;BME280;35209;51.050;13.678;2023-02-14T06:03:48;101915.88;;;4.51;92.53
49341;BME280;35209;51.050;13.678;2023-02-14T06:08:50;101919.28;;;4.49;93.62
49341;BME280;35209;51.050;13.678;2023-02-14T06:13:51;101923.19;;;4.68;92.29
49341;BME280;35209;51.050;13.678;2023-02-14T06:18:53;101917.34;;;4.40;93.16
49341;BME280;35209;51.050;13.678;2023-02-14T06:23:55;101921.19;;;4.20;95.01
49341;BME280;35209;51.050;13.678;2023-02-14T06:28:57;101926.97;;;4.43;94.26
49341;BME280;35209;51.050;13.678;2023-02-14T06:33:59;101933.06;;;4.43;93.86
49341;BME280;35209;51.050;13.678;2023-02-14T06:39:01;101935.81;;;4.51;91.80
49341;BME280;35209;51.050;13.678;2023-02-14T06:44:03;101932.19;;;4.43;91.57
49341;BME280;35209;51.050;13.678;2023-02-14T06:49:05;101935.16;;;4.23;93.68
49341;BME280;35209;51.050;13.678;2023-02-14T06:54:06;101934.91;;;4.13;94.79
49341;BME280;35209;51.050;13.678;2023-02-14T06:59:08;101942.59;;;4.43;93.52
49341;BME280;35209;51.050;13.678;2023-02-14T07:04:10;101938.13;;;4.75;90.43
49341;BME280;35209;51.050;13.678;2023-02-14T07:09:11;101941.19;;;4.57;92.02
49341;BME280;35209;51.050;13.678;2023-02-14T07:14:17;101929.66;;;4.85;89.99
49341;BME280;35209;51.050;13.678;2023-02-14T07:19:19;101926.88;;;4.77;89.91
49341;BME280;35209;51.050;13.678;2023-02-14T07:24:20;101929.06;;;4.58;91.07
49341;BME280;35209;51.050;13.678;2023-02-14T07:29:22;101928.22;;;4.60;91.35
49341;BME280;35209;51.050;13.678;2023-02-14T07:34:24;101929.34;;;4.70;90.82
49341;BME280;35209;51.050;13.678;2023-02-14T07:39:27;101929.91;;;4.57;92.27
49341;BME280;35209;51.050;13.678;2023-02-14T07:44:29;101924.91;;;4.66;89.62
49341;BME280;35209;51.050;13.678;2023-02-14T07:49:31;101928.00;;;4.87;89.38
49341;BME280;35209;51.050;13.678;2023-02-14T07:54:33;101927.94;;;4.86;86.87
49341;BME280;35209;51.050;13.678;2023-02-14T07:59:34;101927.03;;;4.84;87.77
49341;BME280;35209;51.050;13.678;2023-02-14T08:04:36;101927.91;;;4.84;87.06
49341;BME280;35209;51.050;13.678;2023-02-14T08:09:38;101929.38;;;4.73;86.81
49341;BME280;35209;51.050;13.678;2023-02-14T08:14:40;101923.84;;;4.58;88.31
49341;BME280;35209;51.050;13.678;2023-02-14T08:19:42;101926.19;;;4.47;90.41
49341;BME280;35209;51.050;13.678;2023-02-14T08:24:44;101927.25;;;4.55;90.18
49341;BME280;35209;51.050;13.678;2023-02-14T08:29:46;101933.19;;;4.49;90.28
49341;BME280;35209;51.050;13.678;2023-02-14T08:34:47;101944.13;;;5.10;86.56
49341;BME280;35209;51.050;13.678;2023-02-14T08:39:49;101940.56;;;5.08;86.05
49341;BME280;35209;51.050;13.678;2023-02-14T08:44:51;101938.44;;;4.89;87.11
49341;BME280;35209;51.050;13.678;2023-02-14T08:49:52;101942.41;;;5.12;86.52
49341;BME280;35209;51.050;13.678;2023-02-14T08:54:54;101941.19;;;5.37;84.84
49341;BME280;35209;51.050;13.678;2023-02-14T08:59:56;101937.16;;;5.11;86.95
49341;BME280;35209;51.050;13.678;2023-02-14T09:04:57;101935.34;;;5.06;88.18
49341;BME280;35209;51.050;13.678;2023-02-14T09:09:59;101938.19;;;4.78;89.06
49341;BME280;35209;51.050;13.678;2023-02-14T09:15:01;101942.41;;;4.73;90.47
49341;BME280;35209;51.050;13.678;2023-02-14T09:20:07;101945.47;;;4.93;89.41
49341;BME280;35209;51.050;13.678;2023-02-14T09:25:09;101948.41;;;5.08;89.19
49341;BME280;35209;51.050;13.678;2023-02-14T09:30:11;101946.59;;;5.46;85.39
49341;BME280;35209;51.050;13.678;2023-02-14T09:35:13;101944.59;;;5.35;85.83
49341;BME280;35209;51.050;13.678;2023-02-14T09:40:17;101951.63;;;5.37;86.27
49341;BME280;35209;51.050;13.678;2023-02-14T09:45:24;101950.56;;;5.29;86.94
49341;BME280;35209;51.050;13.678;2023-02-14T09:50:32;101957.97;;;5.50;84.71
49341;BME280;35209;51.050;13.678;2023-02-14T10:01:00;101958.50;;;5.35;85.65
49341;BME280;35209;51.050;13.678;2023-02-14T10:11:42;101951.00;;;5.50;83.89
49341;BME280;35209;51.050;13.678;2023-02-14T10:16:52;101949.69;;;5.27;87.01
49341;BME280;35209;51.050;13.678;2023-02-14T10:22:17;101945.28;;;5.26;86.78
49341;BME280;35209;51.050;13.678;2023-02-14T10:27:40;101941.34;;;5.45;85.85
49341;BME280;35209;51.050;13.678;2023-02-14T10:33:15;101946.66;;;5.49;85.60
49341;BME280;35209;51.050;13.678;2023-02-14T10:43:38;101951.59;;;5.81;83.29
49341;BME280;35209;51.050;13.678;2023-02-14T10:48:56;101941.28;;;5.89;82.39
49341;BME280;35209;51.050;13.678;2023-02-14T10:54:21;101936.47;;;5.63;85.03
49341;BME280;35209;51.050;13.678;2023-02-14T11:04:31;101942.91;;;5.80;84.21
49341;BME280;35209;51.050;13.678;2023-02-14T11:09:33;101935.38;;;5.97;81.89
49341;BME280;35209;51.050;13.678;2023-02-14T11:14:37;101942.91;;;5.82;83.95
49341;BME280;35209;51.050;13.678;2023-02-14T11:19:39;101931.88;;;5.95;82.80
49341;BME280;35209;51.050;13.678;2023-02-14T11:24:41;101920.91;;;5.68;84.54
49341;BME280;35209;51.050;13.678;2023-02-14T11:29:47;101917.97;;;5.96;83.24
49341;BME280;35209;51.050;13.678;2023-02-14T11:34:53;101913.25;;;5.77;84.94
49341;BME280;35209;51.050;13.678;2023-02-14T11:39:59;101909.41;;;6.05;81.51
49341;BME280;35209;51.050;13.678;2023-02-14T11:45:03;101912.25;;;6.19;80.62
49341;BME280;35209;51.050;13.678;2023-02-14T11:50:20;101907.88;;;6.18;80.18
49341;BME280;35209;51.050;13.678;2023-02-14T11:55:28;101899.81;;;6.04;80.05
49341;BME280;35209;51.050;13.678;2023-02-14T12:00:31;101907.34;;;5.89;81.71
49341;BME280;35209;51.050;13.678;2023-02-14T12:05:42;101892.13;;;6.13;79.91
49341;BME280;35209;51.050;13.678;2023-02-14T12:11:00;101888.56;;;6.06;79.48
49341;BME280;35209;51.050;13.678;2023-02-14T12:16:02;101882.09;;;5.88;79.90
49341;BME280;35209;51.050;13.678;2023-02-14T12:31:42;101855.28;;;5.95;80.74
49341;BME280;35209;51.050;13.678;2023-02-14T12:42:16;101852.28;;;6.25;77.78
49341;BME280;35209;51.050;13.678;2023-02-14T12:54:12;101825.78;;;5.99;78.46
49341;BME280;35209;51.050;13.678;2023-02-14T12:58:45;101826.38;;;6.40;76.10
49341;BME280;35209;51.050;13.678;2023-02-14T13:19:45;101804.78;;;6.53;76.10
49341;BME280;35209;51.050;13.678;2023-02-14T13:24:56;101809.19;;;5.95;78.32
49341;BME280;35209;51.050;13.678;2023-02-14T13:30:04;101799.00;;;6.12;77.63
49341;BME280;35209;51.050;13.678;2023-02-14T13:35:07;101798.22;;;6.18;78.57
49341;BME280;35209;51.050;13.678;2023-02-14T13:40:19;101794.41;;;5.96;77.92
49341;BME280;35209;51.050;13.678;2023-02-14T13:50:50;101783.53;;;6.24;77.10
49341;BME280;35209;51.050;13.678;2023-02-14T13:55:53;101783.81;;;6.47;75.95
49341;BME280;35209;51.050;13.678;2023-02-14T14:00:56;101781.22;;;6.47;75.69
49341;BME280;35209;51.050;13.678;2023-02-14T14:06:09;101787.13;;;6.34;77.56
49341;BME280;35209;51.050;13.678;2023-02-14T14:21:30;101764.19;;;6.12;79.30
49341;BME280;35209;51.050;13.678;2023-02-14T14:27:18;101759.44;;;6.47;78.04
49341;BME280;35209;51.050;13.678;2023-02-14T14:32:08;101764.44;;;6.31;79.77
49341;BME280;35209;51.050;13.678;2023-02-14T14:37:20;101756.53;;;6.25;79.71
49341;BME280;35209;51.050;13.678;2023-02-14T14:42:25;101753.25;;;6.42;78.87
49341;BME280;35209;51.050;13.678;2023-02-14T14:47:35;101745.34;;;6.36;79.70
49341;BME280;35209;51.050;13.678;2023-02-14T14:52:41;101733.78;;;6.17;80.31
49341;BME280;35209;51.050;13.678;2023-02-14T14:57:49;101729.22;;;6.00;81.25
49341;BME280;35209;51.050;13.678;2023-02-14T15:03:26;101723.31;;;6.15;79.85
49341;BME280;35209;51.050;13.678;2023-02-14T15:18:57;101702.50;;;6.20;79.56
49341;BME280;35209;51.050;13.678;2023-02-14T15:24:00;101705.81;;;6.06;81.29
49341;BME280;35209;51.050;13.678;2023-02-14T15:29:05;101698.34;;;6.37;79.01
49341;BME280;35209;51.050;13.678;2023-02-14T15:34:08;101693.53;;;6.01;80.41
49341;BME280;35209;51.050;13.678;2023-02-14T15:39:13;101687.09;;;5.77;81.77
49341;BME280;35209;51.050;13.678;2023-02-14T15:44:19;101679.28;;;5.79;82.98
49341;BME280;35209;51.050;13.678;2023-02-14T15:49:28;101686.28;;;5.81;81.11
49341;BME280;35209;51.050;13.678;2023-02-14T15:54:37;101681.81;;;5.74;82.18
49341;BME280;35209;51.050;13.678;2023-02-14T15:59:40;101680.00;;;5.67;82.75
49341;BME280;35209;51.050;13.678;2023-02-14T16:04:43;101677.66;;;5.28;85.35
49341;BME280;35209;51.050;13.678;2023-02-14T16:09:45;101679.63;;;5.44;83.64
49341;BME280;35209;51.050;13.678;2023-02-14T16:15:00;101686.66;;;4.95;85.92
49341;BME280;35209;51.050;13.678;2023-02-14T16:25:40;101691.00;;;4.48;89.44
49341;BME280;35209;51.050;13.678;2023-02-14T16:30:43;101691.78;;;4.44;90.33
49341;BME280;35209;51.050;13.678;2023-02-14T16:35:47;101682.16;;;4.40;91.24
49341;BME280;35209;51.050;13.678;2023-02-14T16:40:51;101686.22;;;4.25;91.41
49341;BME280;35209;51.050;13.678;2023-02-14T16:45:54;101685.03;;;4.11;92.68
49341;BME280;35209;51.050;13.678;2023-02-14T16:50:56;101681.44;;;4.06;93.01
49341;BME280;35209;51.050;13.678;2023-02-14T16:55:58;101680.47;;;4.01;93.28
49341;BME280;35209;51.050;13.678;2023-02-14T17:01:00;101679.59;;;3.99;94.00
49341;BME280;35209;51.050;13.678;2023-02-14T17:06:03;101678.56;;;3.94;94.43
49341;BME280;35209;51.050;13.678;2023-02-14T17:11:07;101676.41;;;3.73;94.93
49341;BME280;35209;51.050;13.678;2023-02-14T17:16:11;101672.72;;;3.63;94.84
49341;BME280;35209;51.050;13.678;2023-02-14T17:21:19;101666.59;;;3.61;93.78
49341;BME280;35209;51.050;13.678;2023-02-14T17:26:21;101664.91;;;3.27;95.02
49341;BME280;35209;51.050;13.678;2023-02-14T17:31:24;101657.66;;;3.14;96.73
49341;BME280;35209;51.050;13.678;2023-02-14T17:36:26;101659.25;;;3.07;97.14
49341;BME280;35209;51.050;13.678;2023-02-14T17:41:28;101658.63;;;2.83;99.10
49341;BME280;35209;51.050;13.678;2023-02-14T17:46:30;101657.31;;;2.65;100.00
49341;BME280;35209;51.050;13.678;2023-02-14T17:51:32;101646.44;;;2.80;100.00
49341;BME280;35209;51.050;13.678;2023-02-14T17:56:34;101642.13;;;2.81;100.00
49341;BME280;35209;51.050;13.678;2023-02-14T18:01:36;101643.66;;;2.72;99.22
49341;BME280;35209;51.050;13.678;2023-02-14T18:06:37;101636.00;;;2.45;99.94
49341;BME280;35209;51.050;13.678;2023-02-14T18:11:40;101645.09;;;2.30;99.64
49341;BME280;35209;51.050;13.678;2023-02-14T18:16:44;101642.81;;;2.10;100.00
49341;BME280;35209;51.050;13.678;2023-02-14T18:21:46;101633.81;;;1.97;100.00
49341;BME280;35209;51.050;13.678;2023-02-14T18:26:48;101635.56;;;1.98;100.00
49341;BME280;35209;51.050;13.678;2023-02-14T18:31:50;101638.56;;;1.82;100.00
49341;BME280;35209;51.050;13.678;2023-02-14T18:36:52;101631.28;;;1.70;100.00
49341;BME280;35209;51.050;13.678;2023-02-14T18:41:53;101630.22;;;1.64;100.00
49341;BME280;35209;51.050;13.678;2023-02-14T18:47:00;101631.31;;;1.72;100.00
49341;BME280;35209;51.050;13.678;2023-02-14T18:52:03;101620.56;;;1.58;100.00
49341;BME280;35209;51.050;13.678;2023-02-14T18:57:05;101617.50;;;1.43;100.00
49341;BME280;35209;51.050;13.678;2023-02-14T19:02:32;101608.59;;;1.33;100.00
49341;BME280;35209;51.050;13.678;2023-02-14T19:07:34;101606.06;;;1.36;100.00
49341;BME280;35209;51.050;13.678;2023-02-14T19:12:38;101603.56;;;1.68;100.00
49341;BME280;35209;51.050;13.678;2023-02-14T19:17:40;101600.81;;;1.63;100.00
49341;BME280;35209;51.050;13.678;2023-02-14T19:22:42;101599.88;;;1.60;100.00
49341;BME280;35209;51.050;13.678;2023-02-14T19:27:44;101593.31;;;1.42;100.00
49341;BME280;35209;51.050;13.678;2023-02-14T19:32:46;101585.91;;;1.26;100.00
49341;BME280;35209;51.050;13.678;2023-02-14T19:37:50;101582.47;;;1.27;100.00
49341;BME280;35209;51.050;13.678;2023-02-14T19:42:52;101585.19;;;1.32;100.00
49341;BME280;35209;51.050;13.678;2023-02-14T19:47:54;101585.69;;;1.47;100.00
49341;BME280;35209;51.050;13.678;2023-02-14T19:52:56;101577.34;;;1.29;100.00
49341;BME280;35209;51.050;13.678;2023-02-14T19:57:58;101586.72;;;1.25;100.00
49341;BME280;35209;51.050;13.678;2023-02-14T20:03:00;101583.88;;;1.16;100.00
49341;BME280;35209;51.050;13.678;2023-02-14T20:08:02;101583.03;;;1.17;100.00
49341;BME280;35209;51.050;13.678;2023-02-14T20:13:04;101582.97;;;0.88;100.00
49341;BME280;35209;51.050;13.678;2023-02-14T20:18:06;101574.13;;;0.82;100.00
49341;BME280;35209;51.050;13.678;2023-02-14T20:23:08;101577.59;;;0.82;100.00
49341;BME280;35209;51.050;13.678;2023-02-14T20:28:09;101565.28;;;0.75;100.00
49341;BME280;35209;51.050;13.678;2023-02-14T20:33:11;101571.09;;;0.68;100.00
49341;BME280;35209;51.050;13.678;2023-02-14T20:38:13;101573.69;;;0.68;100.00
49341;BME280;35209;51.050;13.678;2023-02-14T20:43:15;101566.03;;;0.71;100.00
49341;BME280;35209;51.050;13.678;2023-02-14T20:48:16;101560.19;;;1.05;100.00
49341;BME280;35209;51.050;13.678;2023-02-14T20:53:18;101552.97;;;0.95;100.00
49341;BME280;35209;51.050;13.678;2023-02-14T20:58:20;101548.94;;;1.03;100.00
49341;BME280;35209;51.050;13.678;2023-02-14T21:03:22;101553.97;;;0.98;100.00
49341;BME280;35209;51.050;13.678;2023-02-14T21:08:24;101557.19;;;0.91;100.00
49341;BME280;35209;51.050;13.678;2023-02-14T21:13:25;101555.47;;;0.65;100.00
49341;BME280;35209;51.050;13.678;2023-02-14T21:18:27;101554.16;;;0.52;100.00
49341;BME280;35209;51.050;13.678;2023-02-14T21:23:29;101552.31;;;0.48;100.00
49341;BME280;35209;51.050;13.678;2023-02-14T21:28:31;101548.69;;;0.43;100.00
49341;BME280;35209;51.050;13.678;2023-02-14T21:33:33;101544.69;;;0.53;100.00
49341;BME280;35209;51.050;13.678;2023-02-14T21:38:35;101542.06;;;0.51;100.00
49341;BME280;35209;51.050;13.678;2023-02-14T21:43:39;101535.03;;;0.47;100.00
49341;BME280;35209;51.050;13.678;2023-02-14T21:48:41;101532.13;;;0.38;100.00
49341;BME280;35209;51.050;13.678;2023-02-14T21:54:02;101526.22;;;0.40;100.00
49341;BME280;35209;51.050;13.678;2023-02-14T21:59:05;101522.41;;;0.31;100.00
49341;BME280;35209;51.050;13.678;2023-02-14T22:04:09;101511.97;;;0.28;100.00
49341;BME280;35209;51.050;13.678;2023-02-14T22:09:12;101508.38;;;0.22;100.00
49341;BME280;35209;51.050;13.678;2023-02-14T22:14:14;101514.25;;;0.18;100.00
49341;BME280;35209;51.050;13.678;2023-02-14T22:19:16;101499.78;;;0.23;100.00
49341;BME280;35209;51.050;13.678;2023-02-14T22:24:18;101506.53;;;0.45;100.00
49341;BME280;35209;51.050;13.678;2023-02-14T22:29:19;101501.78;;;0.32;100.00
49341;BME280;35209;51.050;13.678;2023-02-14T22:34:21;101495.28;;;0.18;100.00
49341;BME280;35209;51.050;13.678;2023-02-14T22:39:23;101494.59;;;0.23;100.00
49341;BME280;35209;51.050;13.678;2023-02-14T22:44:25;101491.47;;;0.34;100.00
49341;BME280;35209;51.050;13.678;2023-02-14T22:49:27;101489.25;;;0.44;100.00
49341;BME280;35209;51.050;13.678;2023-02-14T22:54:29;101486.69;;;0.44;100.00
49341;BME280;35209;51.050;13.678;2023-02-14T22:59:32;101480.44;;;0.39;100.00
49341;BME280;35209;51.050;13.678;2023-02-14T23:04:34;101487.41;;;0.15;100.00
49341;BME280;35209;51.050;13.678;2023-02-14T23:09:36;101485.00;;;0.21;100.00
49341;BME280;35209;51.050;13.678;2023-02-14T23:14:37;101475.69;;;0.26;100.00
49341;BME280;35209;51.050;13.678;2023-02-14T23:19:58;101480.78;;;0.23;100.00
49341;BME280;35209;51.050;13.678;2023-02-14T23:25:18;101477.44;;;0.00;100.00
49341;BME280;35209;51.050;13.678;2023-02-14T23:30:20;101476.22;;;-0.10;100.00
49341;BME280;35209;51.050;13.678;2023-02-14T23:35:22;101467.31;;;-0.18;100.00
49341;BME280;35209;51.050;13.678;2023-02-14T23:40:24;101469.59;;;-0.27;100.00
49341;BME280;35209;51.050;13.678;2023-02-14T23:45:26;101459.19;;;-0.29;100.00
49341;BME280;35209;51.050;13.678;2023-02-14T23:50:36;101454.19;;;-0.24;100.00
49341;BME280;35209;51.050;13.678;2023-02-14T23:55:38;101446.84;;;-0.13;100.00
